sensor_id;sensor_type;location;lat;lon;timestamp;temperature;humidity
11142;DHT22;5625;50.122;19.864;2023-12-20T00:01:26;6.30;99.90
11142;DHT22;5625;50.122;19.864;2023-12-20T00:03:54;6.30;1.00
11142;DHT22;5625;50.122;19.864;2023-12-20T00:06:22;6.30;99.90
11142;DHT22;5625;50.122;19.864;2023-12-20T00:08:50;6.20;99.90
11142;DHT22;5625;50.122;19.864;2023-12-20T00:11:18;6.30;99.90
11142;DHT22;5625;50.122;19.864;2023-12-20T00:13:46;6.20;99.90
11142;DHT22;5625;50.122;19.864;2023-12-20T00:16:17;6.20;99.90
11142;DHT22;5625;50.122;19.864;2023-12-20T00:18:47;6.20;99.90
11142;DHT22;5625;50.122;19.864;2023-12-20T00:21:15;6.20;99.90
11142;DHT22;5625;50.122;19.864;2023-12-20T00:23:43;6.20;99.90
11142;DHT22;5625;50.122;19.864;2023-12-20T00:26:11;6.20;99.90
11142;DHT22;5625;50.122;19.864;2023-12-20T00:28:39;6.20;99.90
11142;DHT22;5625;50.122;19.864;2023-12-20T00:31:08;6.20;99.90
11142;DHT22;5625;50.122;19.864;2023-12-20T00:33:36;6.20;99.90
11142;DHT22;5625;50.122;19.864;2023-12-20T00:36:06;6.20;99.90
11142;DHT22;5625;50.122;19.864;2023-12-20T00:38:34;6.20;99.90
11142;DHT22;5625;50.122;19.864;2023-12-20T00:41:02;6.20;99.90
11142;DHT22;5625;50.122;19.864;2023-12-20T00:43:30;6.20;99.90
11142;DHT22;5625;50.122;19.864;2023-12-20T00:45:58;6.20;99.90
11142;DHT22;5625;50.122;19.864;2023-12-20T00:48:27;6.20;99.90
11142;DHT22;5625;50.122;19.864;2023-12-20T00:50:57;6.20;99.90
11142;DHT22;5625;50.122;19.864;2023-12-20T00:53:26;6.20;99.90
11142;DHT22;5625;50.122;19.864;2023-12-20T00:55:55;6.20;99.90
11142;DHT22;5625;50.122;19.864;2023-12-20T00:58:25;6.20;99.90
11142;DHT22;5625;50.122;19.864;2023-12-20T01:00:54;6.20;99.90
11142;DHT22;5625;50.122;19.864;2023-12-20T01:03:23;6.30;99.90
11142;DHT22;5625;50.122;19.864;2023-12-20T01:05:51;6.20;99.90
11142;DHT22;5625;50.122;19.864;2023-12-20T01:08:19;6.30;99.90
11142;DHT22;5625;50.122;19.864;2023-12-20T01:10:48;6.20;99.90
11142;DHT22;5625;50.122;19.864;2023-12-20T01:13:16;6.20;99.90
11142;DHT22;5625;50.122;19.864;2023-12-20T01:15:44;6.20;99.90
11142;DHT22;5625;50.122;19.864;2023-12-20T01:18:14;6.20;99.90
11142;DHT22;5625;50.122;19.864;2023-12-20T01:20:42;6.20;99.90
11142;DHT22;5625;50.122;19.864;2023-12-20T01:23:10;6.20;99.90
11142;DHT22;5625;50.122;19.864;2023-12-20T01:25:39;6.20;99.90
11142;DHT22;5625;50.122;19.864;2023-12-20T01:28:08;6.20;99.90
11142;DHT22;5625;50.122;19.864;2023-12-20T01:30:36;6.20;99.90
11142;DHT22;5625;50.122;19.864;2023-12-20T01:33:05;6.20;99.90
11142;DHT22;5625;50.122;19.864;2023-12-20T01:35:33;6.20;99.90
11142;DHT22;5625;50.122;19.864;2023-12-20T01:38:01;6.20;99.90
11142;DHT22;5625;50.122;19.864;2023-12-20T01:40:29;6.20;99.90
11142;DHT22;5625;50.122;19.864;2023-12-20T01:42:58;6.20;99.90
11142;DHT22;5625;50.122;19.864;2023-12-20T01:45:28;6.20;90.50
11142;DHT22;5625;50.122;19.864;2023-12-20T01:47:57;6.20;71.00
11142;DHT22;5625;50.122;19.864;2023-12-20T01:50:27;6.20;58.00
11142;DHT22;5625;50.122;19.864;2023-12-20T01:52:56;6.20;43.30
11142;DHT22;5625;50.122;19.864;2023-12-20T01:55:27;6.20;39.30
11142;DHT22;5625;50.122;19.864;2023-12-20T01:57:58;6.30;32.20
11142;DHT22;5625;50.122;19.864;2023-12-20T02:00:28;6.20;27.80
11142;DHT22;5625;50.122;19.864;2023-12-20T02:02:59;6.30;23.80
11142;DHT22;5625;50.122;19.864;2023-12-20T02:05:29;6.30;21.40
11142;DHT22;5625;50.122;19.864;2023-12-20T02:07:57;6.30;15.40
11142;DHT22;5625;50.122;19.864;2023-12-20T02:10:26;6.30;6.90
11142;DHT22;5625;50.122;19.864;2023-12-20T02:12:55;6.30;1.70
11142;DHT22;5625;50.122;19.864;2023-12-20T02:15:24;6.30;1.00
11142;DHT22;5625;50.122;19.864;2023-12-20T02:17:53;6.30;1.00
11142;DHT22;5625;50.122;19.864;2023-12-20T02:20:22;6.30;1.00
11142;DHT22;5625;50.122;19.864;2023-12-20T02:22:51;6.30;1.00
11142;DHT22;5625;50.122;19.864;2023-12-20T02:25:20;6.30;1.00
11142;DHT22;5625;50.122;19.864;2023-12-20T02:27:48;6.30;1.30
11142;DHT22;5625;50.122;19.864;2023-12-20T02:30:17;6.30;1.00
11142;DHT22;5625;50.122;19.864;2023-12-20T02:32:46;6.30;1.00
11142;DHT22;5625;50.122;19.864;2023-12-20T02:35:14;6.30;3.40
11142;DHT22;5625;50.122;19.864;2023-12-20T02:37:42;6.30;1.10
11142;DHT22;5625;50.122;19.864;2023-12-20T02:40:12;6.30;4.80
11142;DHT22;5625;50.122;19.864;2023-12-20T02:42:40;6.30;6.40
11142;DHT22;5625;50.122;19.864;2023-12-20T02:45:08;6.20;28.60
11142;DHT22;5625;50.122;19.864;2023-12-20T02:47:36;6.20;50.50
11142;DHT22;5625;50.122;19.864;2023-12-20T02:50:05;6.10;86.30
11142;DHT22;5625;50.122;19.864;2023-12-20T02:52:34;6.10;99.90
11142;DHT22;5625;50.122;19.864;2023-12-20T02:55:02;6.10;99.90
11142;DHT22;5625;50.122;19.864;2023-12-20T02:57:31;6.00;99.90
11142;DHT22;5625;50.122;19.864;2023-12-20T03:00:03;5.90;99.90
11142;DHT22;5625;50.122;19.864;2023-12-20T03:02:31;5.90;99.90
11142;DHT22;5625;50.122;19.864;2023-12-20T03:04:59;5.90;99.90
11142;DHT22;5625;50.122;19.864;2023-12-20T03:07:28;5.90;99.90
11142;DHT22;5625;50.122;19.864;2023-12-20T03:09:56;5.80;99.90
11142;DHT22;5625;50.122;19.864;2023-12-20T03:12:45;5.80;99.90
11142;DHT22;5625;50.122;19.864;2023-12-20T03:15:13;5.80;99.90
11142;DHT22;5625;50.122;19.864;2023-12-20T03:17:42;5.80;99.90
11142;DHT22;5625;50.122;19.864;2023-12-20T03:20:11;5.80;99.90
11142;DHT22;5625;50.122;19.864;2023-12-20T03:22:39;5.80;99.90
11142;DHT22;5625;50.122;19.864;2023-12-20T03:25:07;5.80;99.90
11142;DHT22;5625;50.122;19.864;2023-12-20T03:27:37;5.80;99.90
11142;DHT22;5625;50.122;19.864;2023-12-20T03:30:07;5.80;99.90
11142;DHT22;5625;50.122;19.864;2023-12-20T03:32:36;5.80;99.90
11142;DHT22;5625;50.122;19.864;2023-12-20T03:35:05;5.80;99.90
11142;DHT22;5625;50.122;19.864;2023-12-20T03:37:33;5.90;99.90
11142;DHT22;5625;50.122;19.864;2023-12-20T03:40:02;5.90;99.90
11142;DHT22;5625;50.122;19.864;2023-12-20T03:42:30;5.90;99.90
11142;DHT22;5625;50.122;19.864;2023-12-20T03:44:58;6.00;99.90
11142;DHT22;5625;50.122;19.864;2023-12-20T03:47:28;6.00;99.90
11142;DHT22;5625;50.122;19.864;2023-12-20T03:49:57;6.00;99.90
11142;DHT22;5625;50.122;19.864;2023-12-20T03:52:25;6.10;99.90
11142;DHT22;5625;50.122;19.864;2023-12-20T03:54:53;6.10;99.90
11142;DHT22;5625;50.122;19.864;2023-12-20T03:57:22;6.10;99.90
11142;DHT22;5625;50.122;19.864;2023-12-20T03:59:50;6.20;99.90
11142;DHT22;5625;50.122;19.864;2023-12-20T04:02:18;6.20;99.90
11142;DHT22;5625;50.122;19.864;2023-12-20T04:04:47;6.20;99.90
11142;DHT22;5625;50.122;19.864;2023-12-20T04:07:16;6.20;99.90
11142;DHT22;5625;50.122;19.864;2023-12-20T04:09:44;6.30;99.90
11142;DHT22;5625;50.122;19.864;2023-12-20T04:12:12;6.30;99.90
11142;DHT22;5625;50.122;19.864;2023-12-20T04:14:40;6.30;99.90
11142;DHT22;5625;50.122;19.864;2023-12-20T04:17:08;6.30;99.50
11142;DHT22;5625;50.122;19.864;2023-12-20T04:19:36;6.30;90.60
11142;DHT22;5625;50.122;19.864;2023-12-20T04:22:06;6.30;94.20
11142;DHT22;5625;50.122;19.864;2023-12-20T04:24:34;6.40;92.20
11142;DHT22;5625;50.122;19.864;2023-12-20T04:27:03;6.40;91.20
11142;DHT22;5625;50.122;19.864;2023-12-20T04:29:31;6.40;91.10
11142;DHT22;5625;50.122;19.864;2023-12-20T04:31:59;6.40;99.40
11142;DHT22;5625;50.122;19.864;2023-12-20T04:34:27;6.40;99.90
11142;DHT22;5625;50.122;19.864;2023-12-20T04:36:55;6.50;99.90
11142;DHT22;5625;50.122;19.864;2023-12-20T04:39:25;6.40;99.90
11142;DHT22;5625;50.122;19.864;2023-12-20T04:41:53;6.40;1.00
11142;DHT22;5625;50.122;19.864;2023-12-20T04:44:21;6.40;1.00
11142;DHT22;5625;50.122;19.864;2023-12-20T04:46:49;6.40;98.80
11142;DHT22;5625;50.122;19.864;2023-12-20T04:49:17;6.30;99.90
11142;DHT22;5625;50.122;19.864;2023-12-20T04:51:45;6.30;1.00
11142;DHT22;5625;50.122;19.864;2023-12-20T04:54:13;6.30;99.90
11142;DHT22;5625;50.122;19.864;2023-12-20T04:56:43;6.30;99.90
11142;DHT22;5625;50.122;19.864;2023-12-20T04:59:11;6.30;99.90
11142;DHT22;5625;50.122;19.864;2023-12-20T05:01:40;6.20;99.90
11142;DHT22;5625;50.122;19.864;2023-12-20T05:04:08;6.20;1.00
11142;DHT22;5625;50.122;19.864;2023-12-20T05:06:36;6.20;1.00
11142;DHT22;5625;50.122;19.864;2023-12-20T05:09:04;6.10;1.00
11142;DHT22;5625;50.122;19.864;2023-12-20T05:11:33;6.10;99.90
11142;DHT22;5625;50.122;19.864;2023-12-20T05:14:02;6.10;99.90
11142;DHT22;5625;50.122;19.864;2023-12-20T05:16:30;6.10;27.70
11142;DHT22;5625;50.122;19.864;2023-12-20T05:18:58;6.00;93.00
11142;DHT22;5625;50.122;19.864;2023-12-20T05:21:33;6.00;99.90
11142;DHT22;5625;50.122;19.864;2023-12-20T05:24:03;6.00;99.90
11142;DHT22;5625;50.122;19.864;2023-12-20T05:26:31;6.00;99.90
11142;DHT22;5625;50.122;19.864;2023-12-20T05:28:59;5.90;99.90
11142;DHT22;5625;50.122;19.864;2023-12-20T05:31:29;5.90;1.00
11142;DHT22;5625;50.122;19.864;2023-12-20T05:33:57;5.80;1.00
11142;DHT22;5625;50.122;19.864;2023-12-20T05:36:25;5.80;1.00
11142;DHT22;5625;50.122;19.864;2023-12-20T05:38:53;5.80;1.00
11142;DHT22;5625;50.122;19.864;2023-12-20T05:41:22;5.80;1.00
11142;DHT22;5625;50.122;19.864;2023-12-20T05:43:50;5.70;1.00
11142;DHT22;5625;50.122;19.864;2023-12-20T05:46:18;5.70;1.00
11142;DHT22;5625;50.122;19.864;2023-12-20T05:48:47;5.70;1.00
11142;DHT22;5625;50.122;19.864;2023-12-20T05:51:15;5.70;1.00
11142;DHT22;5625;50.122;19.864;2023-12-20T05:53:44;5.70;1.00
11142;DHT22;5625;50.122;19.864;2023-12-20T05:56:12;5.70;1.00
11142;DHT22;5625;50.122;19.864;2023-12-20T05:58:41;5.60;1.00
11142;DHT22;5625;50.122;19.864;2023-12-20T06:01:10;5.60;1.00
11142;DHT22;5625;50.122;19.864;2023-12-20T06:03:41;5.60;1.00
11142;DHT22;5625;50.122;19.864;2023-12-20T06:06:11;5.60;1.00
11142;DHT22;5625;50.122;19.864;2023-12-20T06:08:43;5.50;3.30
11142;DHT22;5625;50.122;19.864;2023-12-20T06:11:16;5.50;1.00
11142;DHT22;5625;50.122;19.864;2023-12-20T06:13:48;5.50;5.90
11142;DHT22;5625;50.122;19.864;2023-12-20T06:16:30;5.50;18.50
11142;DHT22;5625;50.122;19.864;2023-12-20T06:19:06;5.50;34.40
11142;DHT22;5625;50.122;19.864;2023-12-20T06:21:39;5.50;36.90
11142;DHT22;5625;50.122;19.864;2023-12-20T06:24:11;5.40;53.80
11142;DHT22;5625;50.122;19.864;2023-12-20T06:26:39;5.40;71.50
11142;DHT22;5625;50.122;19.864;2023-12-20T06:29:08;5.40;73.80
11142;DHT22;5625;50.122;19.864;2023-12-20T06:31:36;5.40;87.60
11142;DHT22;5625;50.122;19.864;2023-12-20T06:34:04;5.40;96.60
11142;DHT22;5625;50.122;19.864;2023-12-20T06:36:32;5.30;99.90
11142;DHT22;5625;50.122;19.864;2023-12-20T06:39:02;5.30;99.90
11142;DHT22;5625;50.122;19.864;2023-12-20T06:41:31;5.40;99.90
11142;DHT22;5625;50.122;19.864;2023-12-20T06:43:59;5.30;99.90
11142;DHT22;5625;50.122;19.864;2023-12-20T06:46:27;5.30;99.90
11142;DHT22;5625;50.122;19.864;2023-12-20T06:48:55;5.30;99.90
11142;DHT22;5625;50.122;19.864;2023-12-20T06:51:24;5.30;99.90
11142;DHT22;5625;50.122;19.864;2023-12-20T06:53:52;5.30;99.90
11142;DHT22;5625;50.122;19.864;2023-12-20T06:56:22;5.30;99.90
11142;DHT22;5625;50.122;19.864;2023-12-20T06:58:50;5.30;99.90
11142;DHT22;5625;50.122;19.864;2023-12-20T07:01:18;5.20;99.90
11142;DHT22;5625;50.122;19.864;2023-12-20T07:03:47;5.20;99.90
11142;DHT22;5625;50.122;19.864;2023-12-20T07:06:15;5.20;99.90
11142;DHT22;5625;50.122;19.864;2023-12-20T07:08:44;5.20;99.90
11142;DHT22;5625;50.122;19.864;2023-12-20T07:11:12;5.20;99.90
11142;DHT22;5625;50.122;19.864;2023-12-20T07:13:41;5.20;99.90
11142;DHT22;5625;50.122;19.864;2023-12-20T07:16:09;5.20;99.90
11142;DHT22;5625;50.122;19.864;2023-12-20T07:18:37;5.20;99.90
11142;DHT22;5625;50.122;19.864;2023-12-20T07:21:06;5.20;99.90
11142;DHT22;5625;50.122;19.864;2023-12-20T07:23:35;5.20;99.90
11142;DHT22;5625;50.122;19.864;2023-12-20T07:26:03;5.20;99.90
11142;DHT22;5625;50.122;19.864;2023-12-20T07:28:32;5.20;99.90
11142;DHT22;5625;50.122;19.864;2023-12-20T07:31:01;5.10;99.90
11142;DHT22;5625;50.122;19.864;2023-12-20T07:33:30;5.10;99.90
11142;DHT22;5625;50.122;19.864;2023-12-20T07:36:06;5.10;99.90
11142;DHT22;5625;50.122;19.864;2023-12-20T07:38:35;5.20;99.90
11142;DHT22;5625;50.122;19.864;2023-12-20T07:41:04;5.10;99.90
11142;DHT22;5625;50.122;19.864;2023-12-20T07:43:32;5.10;99.90
11142;DHT22;5625;50.122;19.864;2023-12-20T07:46:05;5.10;99.90
11142;DHT22;5625;50.122;19.864;2023-12-20T07:48:34;5.10;99.90
11142;DHT22;5625;50.122;19.864;2023-12-20T07:51:03;5.10;99.90
11142;DHT22;5625;50.122;19.864;2023-12-20T07:53:33;5.10;99.90
11142;DHT22;5625;50.122;19.864;2023-12-20T07:56:01;5.10;99.90
11142;DHT22;5625;50.122;19.864;2023-12-20T07:58:30;5.10;99.90
11142;DHT22;5625;50.122;19.864;2023-12-20T08:01:17;5.10;99.90
11142;DHT22;5625;50.122;19.864;2023-12-20T08:03:48;5.10;99.90
11142;DHT22;5625;50.122;19.864;2023-12-20T08:06:17;5.10;99.90
11142;DHT22;5625;50.122;19.864;2023-12-20T08:08:45;5.10;99.90
11142;DHT22;5625;50.122;19.864;2023-12-20T08:11:27;5.10;99.90
11142;DHT22;5625;50.122;19.864;2023-12-20T08:13:55;5.00;99.90
11142;DHT22;5625;50.122;19.864;2023-12-20T08:16:24;5.00;99.90
11142;DHT22;5625;50.122;19.864;2023-12-20T08:18:52;5.00;99.90
11142;DHT22;5625;50.122;19.864;2023-12-20T08:21:21;4.90;99.90
11142;DHT22;5625;50.122;19.864;2023-12-20T08:23:49;4.90;99.90
11142;DHT22;5625;50.122;19.864;2023-12-20T08:26:19;4.90;99.90
11142;DHT22;5625;50.122;19.864;2023-12-20T08:28:48;5.00;99.90
11142;DHT22;5625;50.122;19.864;2023-12-20T08:31:35;4.90;99.90
11142;DHT22;5625;50.122;19.864;2023-12-20T08:34:15;4.90;99.90
11142;DHT22;5625;50.122;19.864;2023-12-20T08:36:43;4.90;99.90
11142;DHT22;5625;50.122;19.864;2023-12-20T08:39:11;4.90;99.90
11142;DHT22;5625;50.122;19.864;2023-12-20T08:41:39;4.90;99.90
11142;DHT22;5625;50.122;19.864;2023-12-20T08:44:08;4.90;99.90
11142;DHT22;5625;50.122;19.864;2023-12-20T08:46:38;4.90;99.90
11142;DHT22;5625;50.122;19.864;2023-12-20T08:49:06;4.90;99.90
11142;DHT22;5625;50.122;19.864;2023-12-20T08:51:36;4.90;99.90
11142;DHT22;5625;50.122;19.864;2023-12-20T08:54:06;4.90;99.90
11142;DHT22;5625;50.122;19.864;2023-12-20T08:56:35;4.90;99.90
11142;DHT22;5625;50.122;19.864;2023-12-20T08:59:03;4.90;99.90
11142;DHT22;5625;50.122;19.864;2023-12-20T09:01:31;4.90;99.90
11142;DHT22;5625;50.122;19.864;2023-12-20T09:04:01;4.90;99.90
11142;DHT22;5625;50.122;19.864;2023-12-20T09:06:29;5.00;99.90
11142;DHT22;5625;50.122;19.864;2023-12-20T09:08:57;4.90;99.90
11142;DHT22;5625;50.122;19.864;2023-12-20T09:11:26;4.90;99.90
11142;DHT22;5625;50.122;19.864;2023-12-20T09:13:54;4.90;99.90
11142;DHT22;5625;50.122;19.864;2023-12-20T09:16:22;4.90;99.90
11142;DHT22;5625;50.122;19.864;2023-12-20T09:18:50;4.90;99.90
11142;DHT22;5625;50.122;19.864;2023-12-20T09:21:20;4.90;99.90
11142;DHT22;5625;50.122;19.864;2023-12-20T09:23:48;4.90;99.90
11142;DHT22;5625;50.122;19.864;2023-12-20T09:26:16;4.90;99.90
11142;DHT22;5625;50.122;19.864;2023-12-20T09:28:45;4.90;99.90
11142;DHT22;5625;50.122;19.864;2023-12-20T09:31:13;4.90;99.90
11142;DHT22;5625;50.122;19.864;2023-12-20T09:33:41;4.90;99.90
11142;DHT22;5625;50.122;19.864;2023-12-20T09:36:11;5.00;99.90
11142;DHT22;5625;50.122;19.864;2023-12-20T09:38:41;4.90;99.90
11142;DHT22;5625;50.122;19.864;2023-12-20T09:41:13;5.00;99.90
11142;DHT22;5625;50.122;19.864;2023-12-20T09:43:42;4.90;99.90
11142;DHT22;5625;50.122;19.864;2023-12-20T09:46:12;4.90;99.90
11142;DHT22;5625;50.122;19.864;2023-12-20T09:48:44;4.90;99.90
11142;DHT22;5625;50.122;19.864;2023-12-20T09:51:13;4.90;99.90
11142;DHT22;5625;50.122;19.864;2023-12-20T09:53:43;4.90;99.90
11142;DHT22;5625;50.122;19.864;2023-12-20T09:56:12;4.90;99.90
11142;DHT22;5625;50.122;19.864;2023-12-20T09:58:40;4.90;99.90
11142;DHT22;5625;50.122;19.864;2023-12-20T10:01:09;4.90;99.90
11142;DHT22;5625;50.122;19.864;2023-12-20T10:03:39;4.90;99.90
11142;DHT22;5625;50.122;19.864;2023-12-20T10:06:09;4.90;99.90
11142;DHT22;5625;50.122;19.864;2023-12-20T10:08:38;4.90;99.90
11142;DHT22;5625;50.122;19.864;2023-12-20T10:11:08;4.90;99.90
11142;DHT22;5625;50.122;19.864;2023-12-20T10:13:39;4.90;99.90
11142;DHT22;5625;50.122;19.864;2023-12-20T10:16:08;4.80;99.90
11142;DHT22;5625;50.122;19.864;2023-12-20T10:18:37;4.80;99.90
11142;DHT22;5625;50.122;19.864;2023-12-20T10:21:06;4.80;99.90
11142;DHT22;5625;50.122;19.864;2023-12-20T10:23:37;4.90;99.90
11142;DHT22;5625;50.122;19.864;2023-12-20T10:26:07;4.90;99.90
11142;DHT22;5625;50.122;19.864;2023-12-20T10:28:36;4.80;99.90
11142;DHT22;5625;50.122;19.864;2023-12-20T10:31:04;4.80;99.90
11142;DHT22;5625;50.122;19.864;2023-12-20T10:33:33;4.80;99.90
11142;DHT22;5625;50.122;19.864;2023-12-20T10:36:02;4.80;99.90
11142;DHT22;5625;50.122;19.864;2023-12-20T10:38:30;4.80;99.90
11142;DHT22;5625;50.122;19.864;2023-12-20T10:41:01;4.80;99.90
11142;DHT22;5625;50.122;19.864;2023-12-20T10:43:33;4.80;99.90
11142;DHT22;5625;50.122;19.864;2023-12-20T10:46:03;4.80;99.90
11142;DHT22;5625;50.122;19.864;2023-12-20T10:48:32;4.80;99.90
11142;DHT22;5625;50.122;19.864;2023-12-20T10:51:03;4.80;99.90
11142;DHT22;5625;50.122;19.864;2023-12-20T10:53:32;4.80;99.90
11142;DHT22;5625;50.122;19.864;2023-12-20T10:56:04;4.80;99.90
11142;DHT22;5625;50.122;19.864;2023-12-20T10:58:34;4.80;99.90
11142;DHT22;5625;50.122;19.864;2023-12-20T11:01:04;4.80;99.90
11142;DHT22;5625;50.122;19.864;2023-12-20T11:03:35;4.80;99.90
11142;DHT22;5625;50.122;19.864;2023-12-20T11:06:08;4.80;99.90
11142;DHT22;5625;50.122;19.864;2023-12-20T11:08:56;4.80;99.90
11142;DHT22;5625;50.122;19.864;2023-12-20T11:11:40;4.80;99.90
11142;DHT22;5625;50.122;19.864;2023-12-20T11:14:18;4.80;99.90
11142;DHT22;5625;50.122;19.864;2023-12-20T11:16:50;4.80;99.90
11142;DHT22;5625;50.122;19.864;2023-12-20T11:19:21;4.80;99.90
11142;DHT22;5625;50.122;19.864;2023-12-20T11:21:50;4.80;99.90
11142;DHT22;5625;50.122;19.864;2023-12-20T11:24:21;4.80;99.90
11142;DHT22;5625;50.122;19.864;2023-12-20T11:26:55;4.80;99.90
11142;DHT22;5625;50.122;19.864;2023-12-20T11:29:34;4.80;99.90
11142;DHT22;5625;50.122;19.864;2023-12-20T11:32:03;4.80;99.90
11142;DHT22;5625;50.122;19.864;2023-12-20T11:34:52;4.90;99.90
11142;DHT22;5625;50.122;19.864;2023-12-20T11:37:30;4.80;99.90
11142;DHT22;5625;50.122;19.864;2023-12-20T11:40:01;4.80;99.90
11142;DHT22;5625;50.122;19.864;2023-12-20T11:42:33;4.90;99.90
11142;DHT22;5625;50.122;19.864;2023-12-20T11:45:10;4.90;99.90
11142;DHT22;5625;50.122;19.864;2023-12-20T11:47:46;4.90;99.90
11142;DHT22;5625;50.122;19.864;2023-12-20T11:50:15;4.90;99.90
11142;DHT22;5625;50.122;19.864;2023-12-20T11:52:43;4.90;99.90
11142;DHT22;5625;50.122;19.864;2023-12-20T11:55:12;4.90;99.90
11142;DHT22;5625;50.122;19.864;2023-12-20T11:57:41;4.90;99.90
11142;DHT22;5625;50.122;19.864;2023-12-20T12:00:13;4.90;99.90
11142;DHT22;5625;50.122;19.864;2023-12-20T12:02:42;4.90;99.90
11142;DHT22;5625;50.122;19.864;2023-12-20T12:05:14;4.90;99.90
11142;DHT22;5625;50.122;19.864;2023-12-20T12:07:42;4.90;99.90
11142;DHT22;5625;50.122;19.864;2023-12-20T12:10:10;4.90;99.90
11142;DHT22;5625;50.122;19.864;2023-12-20T12:12:41;4.90;99.90
11142;DHT22;5625;50.122;19.864;2023-12-20T12:15:11;4.90;99.90
11142;DHT22;5625;50.122;19.864;2023-12-20T12:17:39;4.90;99.90
11142;DHT22;5625;50.122;19.864;2023-12-20T12:20:08;4.90;99.90
11142;DHT22;5625;50.122;19.864;2023-12-20T12:22:37;4.90;99.90
11142;DHT22;5625;50.122;19.864;2023-12-20T12:25:12;4.90;99.90
11142;DHT22;5625;50.122;19.864;2023-12-20T12:27:43;4.90;99.90
11142;DHT22;5625;50.122;19.864;2023-12-20T12:30:16;4.90;99.90
11142;DHT22;5625;50.122;19.864;2023-12-20T12:32:45;4.90;99.90
11142;DHT22;5625;50.122;19.864;2023-12-20T12:35:14;4.90;99.90
11142;DHT22;5625;50.122;19.864;2023-12-20T12:37:42;4.90;99.90
11142;DHT22;5625;50.122;19.864;2023-12-20T12:40:12;4.90;99.90
11142;DHT22;5625;50.122;19.864;2023-12-20T12:42:42;4.90;99.90
11142;DHT22;5625;50.122;19.864;2023-12-20T12:45:13;4.90;99.90
11142;DHT22;5625;50.122;19.864;2023-12-20T12:47:41;4.90;99.90
11142;DHT22;5625;50.122;19.864;2023-12-20T12:50:09;4.90;99.90
11142;DHT22;5625;50.122;19.864;2023-12-20T12:52:38;4.90;99.90
11142;DHT22;5625;50.122;19.864;2023-12-20T12:55:06;4.90;99.90
11142;DHT22;5625;50.122;19.864;2023-12-20T12:57:35;4.90;99.90
11142;DHT22;5625;50.122;19.864;2023-12-20T13:00:04;4.90;99.90
11142;DHT22;5625;50.122;19.864;2023-12-20T13:02:36;4.90;99.90
11142;DHT22;5625;50.122;19.864;2023-12-20T13:05:08;4.90;99.90
11142;DHT22;5625;50.122;19.864;2023-12-20T13:07:37;4.90;99.90
11142;DHT22;5625;50.122;19.864;2023-12-20T13:10:06;4.90;99.90
11142;DHT22;5625;50.122;19.864;2023-12-20T13:12:37;4.90;99.90
11142;DHT22;5625;50.122;19.864;2023-12-20T13:15:06;4.90;99.90
11142;DHT22;5625;50.122;19.864;2023-12-20T13:17:37;4.90;99.90
11142;DHT22;5625;50.122;19.864;2023-12-20T13:20:06;4.90;99.90
11142;DHT22;5625;50.122;19.864;2023-12-20T13:22:34;4.90;99.90
11142;DHT22;5625;50.122;19.864;2023-12-20T13:25:03;4.90;99.90
11142;DHT22;5625;50.122;19.864;2023-12-20T13:27:31;4.90;99.90
11142;DHT22;5625;50.122;19.864;2023-12-20T13:30:00;4.90;99.90
11142;DHT22;5625;50.122;19.864;2023-12-20T13:32:28;4.90;99.90
11142;DHT22;5625;50.122;19.864;2023-12-20T13:35:01;4.90;99.90
11142;DHT22;5625;50.122;19.864;2023-12-20T13:37:30;4.90;99.90
11142;DHT22;5625;50.122;19.864;2023-12-20T13:39:59;4.90;99.90
11142;DHT22;5625;50.122;19.864;2023-12-20T13:42:29;4.90;99.90
11142;DHT22;5625;50.122;19.864;2023-12-20T13:44:58;4.90;99.90
11142;DHT22;5625;50.122;19.864;2023-12-20T13:47:28;4.90;99.90
11142;DHT22;5625;50.122;19.864;2023-12-20T13:49:57;4.90;99.90
11142;DHT22;5625;50.122;19.864;2023-12-20T13:52:26;4.90;99.90
11142;DHT22;5625;50.122;19.864;2023-12-20T13:54:55;4.90;99.90
11142;DHT22;5625;50.122;19.864;2023-12-20T13:57:23;4.90;99.90
11142;DHT22;5625;50.122;19.864;2023-12-20T14:00:11;4.90;99.90
11142;DHT22;5625;50.122;19.864;2023-12-20T14:02:41;4.90;99.90
11142;DHT22;5625;50.122;19.864;2023-12-20T14:05:10;4.90;99.90
11142;DHT22;5625;50.122;19.864;2023-12-20T14:07:39;4.90;99.90
11142;DHT22;5625;50.122;19.864;2023-12-20T14:10:08;4.90;99.90
11142;DHT22;5625;50.122;19.864;2023-12-20T14:12:38;4.90;99.90
11142;DHT22;5625;50.122;19.864;2023-12-20T14:15:09;4.90;99.90
11142;DHT22;5625;50.122;19.864;2023-12-20T14:17:38;4.90;99.90
11142;DHT22;5625;50.122;19.864;2023-12-20T14:20:07;4.90;99.90
11142;DHT22;5625;50.122;19.864;2023-12-20T14:22:35;4.80;99.90
11142;DHT22;5625;50.122;19.864;2023-12-20T14:25:08;4.80;99.90
11142;DHT22;5625;50.122;19.864;2023-12-20T14:27:38;4.80;99.90
11142;DHT22;5625;50.122;19.864;2023-12-20T14:30:07;4.80;99.90
11142;DHT22;5625;50.122;19.864;2023-12-20T14:32:36;4.80;99.90
11142;DHT22;5625;50.122;19.864;2023-12-20T14:35:05;4.80;99.90
11142;DHT22;5625;50.122;19.864;2023-12-20T14:37:35;4.80;99.90
11142;DHT22;5625;50.122;19.864;2023-12-20T14:40:08;4.70;99.90
11142;DHT22;5625;50.122;19.864;2023-12-20T14:42:41;4.70;99.90
11142;DHT22;5625;50.122;19.864;2023-12-20T14:45:10;4.70;99.90
11142;DHT22;5625;50.122;19.864;2023-12-20T14:47:40;4.70;99.90
11142;DHT22;5625;50.122;19.864;2023-12-20T14:50:08;4.70;99.90
11142;DHT22;5625;50.122;19.864;2023-12-20T14:52:37;4.70;99.90
11142;DHT22;5625;50.122;19.864;2023-12-20T14:55:07;4.70;99.90
11142;DHT22;5625;50.122;19.864;2023-12-20T14:57:36;4.60;99.90
11142;DHT22;5625;50.122;19.864;2023-12-20T15:00:05;4.60;99.90
11142;DHT22;5625;50.122;19.864;2023-12-20T15:02:33;4.60;99.90
11142;DHT22;5625;50.122;19.864;2023-12-20T15:05:01;4.60;99.90
11142;DHT22;5625;50.122;19.864;2023-12-20T15:07:29;4.60;99.90
11142;DHT22;5625;50.122;19.864;2023-12-20T15:09:57;4.70;99.90
11142;DHT22;5625;50.122;19.864;2023-12-20T15:12:27;4.70;99.90
11142;DHT22;5625;50.122;19.864;2023-12-20T15:14:55;4.70;99.90
11142;DHT22;5625;50.122;19.864;2023-12-20T15:17:23;4.70;99.90
11142;DHT22;5625;50.122;19.864;2023-12-20T15:19:52;4.70;99.90
11142;DHT22;5625;50.122;19.864;2023-12-20T15:22:21;4.70;99.90
11142;DHT22;5625;50.122;19.864;2023-12-20T15:24:49;4.70;99.90
11142;DHT22;5625;50.122;19.864;2023-12-20T15:27:19;4.60;99.90
11142;DHT22;5625;50.122;19.864;2023-12-20T15:29:52;4.60;99.90
11142;DHT22;5625;50.122;19.864;2023-12-20T15:32:21;4.70;99.90
11142;DHT22;5625;50.122;19.864;2023-12-20T15:34:49;4.60;99.90
11142;DHT22;5625;50.122;19.864;2023-12-20T15:37:19;4.60;99.90
11142;DHT22;5625;50.122;19.864;2023-12-20T15:39:47;4.60;99.90
11142;DHT22;5625;50.122;19.864;2023-12-20T15:42:15;4.60;99.90
11142;DHT22;5625;50.122;19.864;2023-12-20T15:44:43;4.60;99.90
11142;DHT22;5625;50.122;19.864;2023-12-20T15:47:13;4.50;99.90
11142;DHT22;5625;50.122;19.864;2023-12-20T15:49:41;4.50;99.90
11142;DHT22;5625;50.122;19.864;2023-12-20T15:52:09;4.50;99.90
11142;DHT22;5625;50.122;19.864;2023-12-20T15:54:37;4.50;99.90
11142;DHT22;5625;50.122;19.864;2023-12-20T15:57:06;4.50;99.90
11142;DHT22;5625;50.122;19.864;2023-12-20T15:59:34;4.40;99.90
11142;DHT22;5625;50.122;19.864;2023-12-20T16:02:03;4.50;99.90